createdAt,value
2022-10-30T00:01:10.864Z,100.00
2022-10-30T00:06:13.495Z,100.00
2022-10-30T00:11:16.169Z,100.00
2022-10-30T00:16:18.836Z,100.00
2022-10-30T00:21:21.372Z,100.00
2022-10-30T00:26:25.652Z,100.00
2022-10-30T00:31:28.347Z,100.00
2022-10-30T00:36:31.609Z,100.00
2022-10-30T00:41:34.382Z,100.00
2022-10-30T00:46:41.036Z,100.00
2022-10-30T00:51:49.926Z,100.00
2022-10-30T00:56:54.330Z,100.00
2022-10-30T01:01:59.202Z,100.00
2022-10-30T01:07:09.797Z,100.00
2022-10-30T01:12:12.385Z,100.00
2022-10-30T01:17:43.451Z,100.00
2022-10-30T01:22:51.775Z,100.00
2022-10-30T01:27:54.582Z,100.00
2022-10-30T01:33:06.443Z,100.00
2022-10-30T01:38:15.465Z,100.00
2022-10-30T01:43:20.055Z,100.00
2022-10-30T01:49:08.861Z,100.00
2022-10-30T01:54:38.033Z,100.00
2022-10-30T01:59:50.329Z,100.00
2022-10-30T02:04:53.178Z,100.00
2022-10-30T02:09:56.669Z,100.00
2022-10-30T02:15:00.973Z,100.00
2022-10-30T02:20:04.413Z,100.00
2022-10-30T02:25:07.342Z,100.00
2022-10-30T02:30:10.850Z,100.00
2022-10-30T02:35:13.636Z,100.00
2022-10-30T02:40:16.908Z,99.55
2022-10-30T02:45:19.856Z,98.58
2022-10-30T02:50:23.121Z,98.31
2022-10-30T02:55:27.402Z,97.50
2022-10-30T03:00:30.273Z,96.88
2022-10-30T03:05:33.505Z,96.50
2022-10-30T03:10:36.119Z,96.33
2022-10-30T03:15:38.684Z,96.05
2022-10-30T03:20:41.664Z,95.89
2022-10-30T03:25:44.229Z,95.95
2022-10-30T03:30:47.371Z,95.97
2022-10-30T03:35:51.625Z,95.39
2022-10-30T03:40:54.555Z,95.20
2022-10-30T03:45:57.835Z,94.85
2022-10-30T03:51:00.757Z,94.85
2022-10-30T03:56:05.150Z,94.66
2022-10-30T04:01:18.796Z,94.35
2022-10-30T04:06:25.846Z,94.04
2022-10-30T04:11:28.585Z,93.48
2022-10-30T04:16:31.331Z,92.84
2022-10-30T04:21:35.905Z,92.62
2022-10-30T04:26:38.725Z,91.95
2022-10-30T04:31:41.511Z,91.67
2022-10-30T04:36:44.228Z,91.36
2022-10-30T04:41:47.914Z,91.16
2022-10-30T04:46:57.679Z,91.18
2022-10-30T04:52:00.382Z,91.53
2022-10-30T04:57:03.169Z,91.44
2022-10-30T05:02:06.528Z,91.71
2022-10-30T05:07:09.404Z,91.54
2022-10-30T05:12:12.002Z,91.30
2022-10-30T05:17:25.748Z,90.89
2022-10-30T05:22:28.323Z,90.40
2022-10-30T05:27:31.327Z,90.72
2022-10-30T05:32:33.986Z,90.34
2022-10-30T05:37:37.618Z,89.92
2022-10-30T05:42:48.522Z,90.06
2022-10-30T05:48:02.684Z,89.90
2022-10-30T05:53:10.435Z,89.58
2022-10-30T05:58:14.952Z,89.32
2022-10-30T06:03:19.946Z,89.31
2022-10-30T06:08:22.675Z,88.48
2022-10-30T06:13:28.933Z,85.53
2022-10-30T06:18:42.582Z,85.18
2022-10-30T06:23:48.893Z,81.83
2022-10-30T06:29:08.314Z,79.14
2022-10-30T06:34:11.194Z,75.22
2022-10-30T06:39:16.797Z,73.66
2022-10-30T06:44:43.982Z,71.60
2022-10-30T06:49:46.636Z,70.97
2022-10-30T06:54:49.299Z,70.25
2022-10-30T07:00:11.528Z,69.72
2022-10-30T07:05:40.566Z,68.66
2022-10-30T07:10:43.531Z,68.21
2022-10-30T07:16:00.529Z,67.50
2022-10-30T07:21:10.353Z,67.17
2022-10-30T07:26:13.375Z,67.47
2022-10-30T07:31:34.848Z,67.96
2022-10-30T07:37:07.080Z,67.46
2022-10-30T07:42:24.678Z,66.85
2022-10-30T07:48:03.547Z,66.11
2022-10-30T07:53:16.794Z,65.96
2022-10-30T07:58:21.820Z,65.71
2022-10-30T08:03:46.587Z,65.77
2022-10-30T08:09:07.130Z,66.11
2022-10-30T08:14:09.771Z,66.00
2022-10-30T08:19:12.750Z,66.33
2022-10-30T08:24:17.759Z,65.78
2022-10-30T08:29:23.070Z,66.11
2022-10-30T08:34:31.793Z,66.62
2022-10-30T08:39:39.358Z,66.11
2022-10-30T08:45:10.157Z,66.41
2022-10-30T08:50:37.296Z,66.35
2022-10-30T08:55:41.725Z,66.16
2022-10-30T09:01:01.575Z,65.93
2022-10-30T09:06:24.618Z,66.03
2022-10-30T09:11:49.155Z,66.47
2022-10-30T09:16:52.364Z,66.22
2022-10-30T09:21:56.932Z,67.04
2022-10-30T09:26:59.604Z,66.78
2022-10-30T09:32:08.664Z,66.69
2022-10-30T09:37:19.216Z,66.40
2022-10-30T09:42:45.891Z,66.29
2022-10-30T09:48:26.900Z,66.82
2022-10-30T09:53:52.523Z,66.52
2022-10-30T09:59:40.763Z,66.51
2022-10-30T10:04:51.827Z,64.32
2022-10-30T10:10:58.319Z,60.07
2022-10-30T10:16:23.109Z,59.42
2022-10-30T10:21:28.563Z,57.84
2022-10-30T10:26:52.429Z,54.42
2022-10-30T10:32:29.120Z,54.57
2022-10-30T10:37:43.065Z,55.65
2022-10-30T10:42:51.373Z,55.46
2022-10-30T10:53:46.515Z,59.06
2022-10-30T10:58:56.840Z,62.82
2022-10-30T11:04:29.980Z,68.25
2022-10-30T11:09:32.600Z,71.13
2022-10-30T11:14:35.611Z,74.00
2022-10-30T11:19:38.223Z,76.70
2022-10-30T11:24:40.872Z,76.92
2022-10-30T11:29:52.379Z,76.68
2022-10-30T11:35:10.183Z,76.87
2022-10-30T11:40:12.655Z,76.78
2022-10-30T11:45:24.854Z,75.98
2022-10-30T11:50:32.680Z,73.95
2022-10-30T11:55:41.572Z,73.08
2022-10-30T12:00:45.429Z,72.48
2022-10-30T12:05:50.356Z,70.98
2022-10-30T12:10:53.254Z,70.68
2022-10-30T12:16:14.771Z,69.90
2022-10-30T12:21:20.300Z,69.71
2022-10-30T12:26:24.237Z,69.20
2022-10-30T12:31:36.376Z,71.14
2022-10-30T12:36:50.751Z,73.19
2022-10-30T12:42:06.083Z,76.29
2022-10-30T12:47:39.251Z,78.75
2022-10-30T12:53:16.707Z,80.88
2022-10-30T12:58:33.638Z,80.31
2022-10-30T13:03:43.001Z,81.94
2022-10-30T13:08:55.172Z,84.84
2022-10-30T13:14:00.532Z,86.28
2022-10-30T13:19:03.863Z,87.03
2022-10-30T13:24:35.845Z,86.42
2022-10-30T13:29:49.730Z,86.17
2022-10-30T13:35:02.253Z,86.31
2022-10-30T13:40:15.269Z,86.24
2022-10-30T13:45:47.338Z,86.99
2022-10-30T13:51:25.597Z,86.71
2022-10-30T13:56:29.005Z,85.73
2022-10-30T14:02:12.606Z,85.92
2022-10-30T14:07:30.900Z,86.19
2022-10-30T14:12:52.459Z,86.67
2022-10-30T14:18:24.699Z,85.97
2022-10-30T14:23:38.068Z,86.24
2022-10-30T14:28:45.310Z,86.56
2022-10-30T14:33:54.503Z,86.25
2022-10-30T14:39:09.372Z,86.07
2022-10-30T14:44:21.484Z,86.49
2022-10-30T14:49:44.870Z,87.30
2022-10-30T14:55:02.512Z,86.70
2022-10-30T15:00:44.009Z,86.33
2022-10-30T15:06:06.412Z,86.94
2022-10-30T15:11:37.157Z,87.08
2022-10-30T15:16:41.452Z,86.35
2022-10-30T15:21:57.045Z,85.64
2022-10-30T15:27:02.469Z,84.86
2022-10-30T15:32:18.255Z,84.02
2022-10-30T15:37:21.098Z,83.37
2022-10-30T15:42:23.783Z,82.58
2022-10-30T15:47:26.402Z,82.26
2022-10-30T15:52:32.654Z,82.17
2022-10-30T16:03:13.755Z,82.27
2022-10-30T16:08:21.835Z,81.82
2022-10-30T16:13:30.065Z,82.19
2022-10-30T16:18:36.004Z,82.03
2022-10-30T16:23:41.779Z,82.66
2022-10-30T16:28:47.831Z,81.87
2022-10-30T16:33:51.065Z,82.09
2022-10-30T16:38:55.192Z,83.05
2022-10-30T16:44:13.103Z,82.56
2022-10-30T16:49:19.443Z,83.11
2022-10-30T16:54:27.499Z,83.35
2022-10-30T16:59:39.077Z,83.35
2022-10-30T17:04:46.440Z,83.87
2022-10-30T17:09:50.442Z,84.08
2022-10-30T17:14:56.404Z,84.53
2022-10-30T17:20:28.107Z,84.81
2022-10-30T17:25:38.863Z,85.40
2022-10-30T17:30:43.063Z,85.05
2022-10-30T17:35:45.605Z,85.22
2022-10-30T17:40:48.528Z,85.23
2022-10-30T17:45:51.567Z,84.75
2022-10-30T17:50:54.958Z,85.70
2022-10-30T17:56:18.327Z,85.75
2022-10-30T18:01:24.533Z,85.78
2022-10-30T18:06:28.938Z,86.15
2022-10-30T18:11:31.641Z,85.93
2022-10-30T18:16:34.451Z,85.38
2022-10-30T18:21:37.729Z,85.48
2022-10-30T18:26:41.215Z,85.05
2022-10-30T18:31:44.440Z,84.86
2022-10-30T18:36:49.559Z,85.10
2022-10-30T18:41:55.438Z,84.20
2022-10-30T18:47:02.702Z,84.04
2022-10-30T18:52:06.002Z,83.88
2022-10-30T18:57:08.819Z,84.25
2022-10-30T19:02:24.363Z,83.63
2022-10-30T19:07:29.899Z,83.15
2022-10-30T19:12:35.629Z,83.09
2022-10-30T19:17:41.212Z,82.98
2022-10-30T19:22:43.792Z,82.76
2022-10-30T19:27:46.964Z,82.09
2022-10-30T19:32:50.017Z,81.62
2022-10-30T19:37:54.059Z,81.99
2022-10-30T19:42:56.849Z,81.87
2022-10-30T19:48:11.561Z,81.78
2022-10-30T19:53:14.893Z,81.42
2022-10-30T19:58:20.841Z,81.09
2022-10-30T20:03:27.704Z,80.71
2022-10-30T20:08:30.781Z,80.23
2022-10-30T20:13:33.805Z,80.29
2022-10-30T20:18:37.436Z,79.54
2022-10-30T20:23:40.148Z,79.69
2022-10-30T20:28:44.882Z,79.23
2022-10-30T20:33:49.684Z,78.89
2022-10-30T20:38:55.560Z,78.44
2022-10-30T20:43:58.420Z,78.33
2022-10-30T20:49:12.155Z,77.48
2022-10-30T20:54:21.984Z,77.74
2022-10-30T20:59:24.710Z,77.56
2022-10-30T21:04:27.264Z,76.75
2022-10-30T21:09:30.053Z,77.24
2022-10-30T21:14:33.057Z,76.56
2022-10-30T21:19:36.263Z,76.61
2022-10-30T21:24:38.844Z,76.98
2022-10-30T21:29:41.834Z,76.66
2022-10-30T21:34:44.609Z,76.25
2022-10-30T21:39:47.252Z,76.42
2022-10-30T21:44:49.758Z,75.83
2022-10-30T21:49:52.349Z,75.59
2022-10-30T21:54:54.922Z,75.67
2022-10-30T21:59:59.992Z,74.90
2022-10-30T22:05:07.463Z,74.71
2022-10-30T22:10:10.183Z,74.40
2022-10-30T22:15:12.727Z,74.80
2022-10-30T22:20:15.787Z,74.01
2022-10-30T22:25:18.507Z,74.19
2022-10-30T22:30:21.055Z,73.90
2022-10-30T22:35:23.814Z,74.09
2022-10-30T22:40:26.362Z,73.73
2022-10-30T22:45:29.395Z,73.52
2022-10-30T22:50:32.069Z,73.66
2022-10-30T22:55:34.659Z,73.57
2022-10-30T23:00:37.278Z,73.97
2022-10-30T23:05:40.076Z,73.96
2022-10-30T23:10:42.625Z,74.62
2022-10-30T23:15:45.183Z,73.95
2022-10-30T23:20:48.505Z,73.95
2022-10-30T23:25:51.176Z,74.46
2022-10-30T23:30:53.738Z,74.16
2022-10-30T23:36:03.724Z,74.04
2022-10-30T23:41:06.198Z,73.86
2022-10-30T23:46:09.056Z,73.36
2022-10-30T23:51:11.660Z,73.35
2022-10-30T23:56:14.543Z,72.58
